Time;durP1;ratioP1;P1;durP2;ratioP2;P2;SDS_P1;SDS_P2;PMS_P1;PMS_P2;Temp;Humidity;BMP_temperature;BMP_pressure;BME280_temperature;BME280_humidity;BME280_pressure;Samples;Min_cycle;Max_cycle;Signal;HPM_P1;HPM_P2
2023/05/27 07:38:11;;;;;;;;;;;;;;;20.97;58.63;97170.41;4254956;27;10377;-71
2023/05/27 07:40:14;;;;;;;;;;;;;;;21.25;58.27;97161.31;4239774;27;5674;-72
2023/05/27 07:42:17;;;;;;;;;;;;;;;21.44;57.42;97162.63;4245692;27;5733;-71
2023/05/27 07:44:20;;;;;;;;;;;;;;;21.58;57.53;97168.41;4232438;27;5660;-71
2023/05/27 07:46:23;;;;;;;;;;;;;;;21.70;56.71;97158.31;4247236;27;5811;-71
2023/05/27 07:48:28;;;;;;;;;;;;;;;21.80;56.53;97161.09;4244082;27;5828;-71
2023/05/27 07:50:31;;;;;;;;;;;;;;;21.90;56.66;97167.63;4247012;27;5646;-71
2023/05/27 07:52:34;;;;;;;;;;;;;;;21.96;56.38;97166.59;4234711;27;5766;-71
2023/05/27 07:54:38;;;;;;;;;;;;;;;22.01;56.04;97170.16;4238409;27;5675;-71
2023/05/27 07:56:57;;;;;;;;;;;;;;;22.06;55.97;97164.00;4236684;27;5804;-71
2023/05/27 07:59:00;;;;;;;;;;;;;;;22.08;55.77;97170.78;4247166;27;5744;-71
2023/05/27 08:01:03;;;;;;;;;;;;;;;22.12;55.60;97167.56;4246809;27;5741;-71
2023/05/27 08:03:06;;;;;;;;;;;;;;;22.14;55.75;97171.63;4246844;27;5713;-71
2023/05/27 08:05:10;;;;;;;;;;;;;;;22.18;55.74;97158.44;4237847;27;5679;-71
2023/05/27 08:07:13;;;;;;;;;;;;;;;22.18;55.43;97158.44;4229407;28;5659;-71
2023/05/27 08:09:16;;;;;;;;;;;;;;;22.19;55.59;97152.81;4238125;27;5741;-71
2023/05/27 08:11:21;;;;;;;;;;;;;;;22.19;55.65;97152.81;4238037;27;6338;-71
2023/05/27 08:13:25;;;;;;;;;;;;;;;22.22;55.08;97159.56;4231208;27;5759;-71
2023/05/27 08:15:27;;;;;;;;;;;;;;;22.23;55.01;97151.22;4246871;27;5760;-71
2023/05/27 08:17:30;;;;;;;;;;;;;;;22.21;54.83;97145.31;4246659;27;5634;-71
2023/05/27 08:19:33;;;;;;;;;;;;;;;22.21;55.07;97147.19;4246688;27;5765;-71
2023/05/27 08:21:36;;;;;;;;;;;;;;;22.20;54.58;97137.44;4234304;27;5913;-72
2023/05/27 08:23:40;;;;;;;;;;;;;;;22.21;54.45;97144.50;4234438;27;5658;-72
2023/05/27 08:25:43;;;;;;;;;;;;;;;22.18;54.52;97137.72;4236739;27;5638;-71
2023/05/27 08:27:50;;;;;;;;;;;;;;;22.19;54.96;97133.13;4237051;27;5773;-71
2023/05/27 08:29:53;;;;;;;;;;;;;;;22.20;54.45;97137.44;4239950;27;5695;-71
2023/05/27 08:31:56;;;;;;;;;;;;;;;22.22;54.25;97133.47;4236249;27;7114;-70
2023/05/27 08:33:59;;;;;;;;;;;;;;;22.23;54.30;97131.56;4238351;27;5788;-71
2023/05/27 08:36:02;;;;;;;;;;;;;;;22.23;54.15;97128.88;4241215;27;5902;-70
2023/05/27 08:38:06;;;;;;;;;;;;;;;22.21;54.00;97131.84;4237289;27;5721;-70
2023/05/27 08:40:13;;;;;;;;;;;;;;;22.21;54.09;97126.44;4233944;28;5729;-71
2023/05/27 08:42:17;;;;;;;;;;;;;;;22.21;54.20;97121.06;4234605;28;5865;-70
2023/05/27 08:44:22;;;;;;;;;;;;;;;22.26;54.11;97131.03;4232985;27;5060;-70
2023/05/27 08:46:27;;;;;;;;;;;;;;;22.28;54.05;97126.22;4228691;28;5650;-70
2023/05/27 08:48:30;;;;;;;;;;;;;;;22.28;54.03;97126.22;4223130;28;5688;-70
2023/05/27 08:50:33;;;;;;;;;;;;;;;22.28;53.98;97123.50;4221035;28;5650;-70
2023/05/27 08:52:42;;;;;;;;;;;;;;;22.26;53.73;97122.97;4225866;27;5737;-70
2023/05/27 08:54:47;;;;;;;;;;;;;;;22.25;53.82;97121.34;4232377;27;5650;-71
2023/05/27 08:56:54;;;;;;;;;;;;;;;22.25;53.58;97116.78;4231876;28;5744;-70
2023/05/27 08:58:58;;;;;;;;;;;;;;;22.27;53.34;97119.19;4227062;28;5107;-70
2023/05/27 09:01:02;;;;;;;;;;;;;;;22.30;53.50;97124.06;4233375;28;5666;-70
2023/05/27 09:03:05;;;;;;;;;;;;;;;22.30;53.07;97118.66;4227718;28;5754;-70
2023/05/27 09:05:09;;;;;;;;;;;;;;;22.33;53.20;97112.78;4226084;28;5641;-70
2023/05/27 09:07:13;;;;;;;;;;;;;;;22.35;53.06;97119.53;4218615;28;5671;-70
2023/05/27 09:09:17;;;;;;;;;;;;;;;22.37;52.71;97119.28;4232797;28;5766;-70
2023/05/27 09:11:22;;;;;;;;;;;;;;;22.36;52.66;97118.47;4232259;28;5733;-70
2023/05/27 09:13:28;;;;;;;;;;;;;;;22.35;52.63;97116.84;4230695;28;5729;-70
2023/05/27 09:15:32;;;;;;;;;;;;;;;22.32;52.96;97116.56;4233260;27;5745;-70
2023/05/27 09:17:40;;;;;;;;;;;;;;;22.33;52.70;97104.72;4228115;28;5748;-69
2023/05/27 09:19:45;;;;;;;;;;;;;;;22.37;52.51;97108.50;4228089;28;5683;-69
2023/05/27 09:21:49;;;;;;;;;;;;;;;22.36;52.49;97107.69;4229009;28;6523;-69
2023/05/27 09:23:57;;;;;;;;;;;;;;;22.36;52.35;97109.56;4224317;28;5331;-70
2023/05/27 09:26:00;;;;;;;;;;;;;;;22.37;52.54;97105.81;4225429;28;5753;-69
2023/05/27 09:28:05;;;;;;;;;;;;;;;22.36;52.22;97106.88;4228969;28;5733;-69
2023/05/27 09:30:10;;;;;;;;;;;;;;;22.33;52.08;97102.81;4217628;28;5739;-70
2023/05/27 09:32:13;;;;;;;;;;;;;;;22.31;52.56;97098.75;4229210;27;5791;-69
2023/05/27 09:34:18;;;;;;;;;;;;;;;22.32;52.47;97095.81;4226279;28;5761;-70
2023/05/27 09:36:22;;;;;;;;;;;;;;;22.38;52.28;97093.94;4229873;28;6445;-69
2023/05/27 09:38:29;;;;;;;;;;;;;;;22.37;52.37;97093.13;4228689;28;5675;-69
2023/05/27 09:40:32;;;;;;;;;;;;;;;22.40;52.08;97091.81;4222853;28;5815;-70
2023/05/27 09:42:43;;;;;;;;;;;;;;;22.41;51.84;97093.41;4223267;27;5671;-71
2023/05/27 09:44:49;;;;;;;;;;;;;;;22.44;52.06;97090.22;4226528;28;5734;-70
2023/05/27 09:46:54;;;;;;;;;;;;;;;22.46;52.28;97089.97;4232900;27;5733;-70
2023/05/27 09:48:59;;;;;;;;;;;;;;;22.50;51.89;97081.09;4228968;28;5667;-69
2023/05/27 09:51:04;;;;;;;;;;;;;;;22.55;51.81;97086.50;4224933;27;5650;-70
2023/05/27 09:53:07;;;;;;;;;;;;;;;22.57;52.07;97087.06;4230723;28;5642;-70
2023/05/27 09:55:16;;;;;;;;;;;;;;;22.59;51.82;97078.72;4224416;28;6494;-69
2023/05/27 09:57:20;;;;;;;;;;;;;;;22.60;51.34;97075.75;4218761;28;5754;-70
2023/05/27 09:59:23;;;;;;;;;;;;;;;22.61;51.65;97079.25;4226980;28;5642;-70
2023/05/27 10:01:29;;;;;;;;;;;;;;;22.60;51.70;97081.13;4233294;28;5797;-69
2023/05/27 10:03:34;;;;;;;;;;;;;;;22.62;51.78;97078.16;4225840;28;5638;-69
2023/05/27 10:05:37;;;;;;;;;;;;;;;22.62;51.30;97073.59;4224637;28;5941;-69
2023/05/27 10:07:43;;;;;;;;;;;;;;;22.63;51.18;97072.50;4224406;27;7667;-70
2023/05/27 10:10:09;;;;;;;;;;;;;;;22.67;51.45;97075.50;4227993;28;5794;-70
2023/05/27 10:12:15;;;;;;;;;;;;;;;22.69;51.22;97073.38;4225288;28;5657;-70
2023/05/27 10:14:19;;;;;;;;;;;;;;;22.70;51.11;97074.16;4228191;28;5710;-70
2023/05/27 10:16:22;;;;;;;;;;;;;;;22.70;51.46;97074.97;4229414;28;6763;-71
2023/05/27 10:18:29;;;;;;;;;;;;;;;22.71;51.12;97059.63;4227718;28;5721;-71
2023/05/27 10:20:32;;;;;;;;;;;;;;;22.72;51.27;97072.03;4225499;28;5823;-70
2023/05/27 10:22:44;;;;;;;;;;;;;;;22.70;50.76;97063.41;4219251;28;5881;-71
2023/05/27 10:24:49;;;;;;;;;;;;;;;22.72;50.85;97058.53;4231372;27;5717;-74
2023/05/27 10:27:02;;;;;;;;;;;;;;;22.72;51.19;97056.66;4227285;28;5845;-72
2023/05/27 10:29:07;;;;;;;;;;;;;;;22.75;51.06;97058.81;4228358;28;5790;-71
2023/05/27 10:31:11;;;;;;;;;;;;;;;22.76;50.64;97051.53;4218405;28;5646;-70
2023/05/27 10:33:14;;;;;;;;;;;;;;;22.78;51.00;97054.81;4232369;28;5753;-71
2023/05/27 10:35:17;;;;;;;;;;;;;;;22.82;50.75;97055.88;4223350;28;5740;-69
2023/05/27 10:37:21;;;;;;;;;;;;;;;22.84;50.69;97056.47;4230085;28;5654;-69
2023/05/27 10:39:25;;;;;;;;;;;;;;;22.84;50.39;97051.88;4231449;28;5901;-66
2023/05/27 10:41:40;;;;;;;;;;;;;;;22.84;50.96;97042.97;4224868;27;5741;-81
2023/05/27 10:43:43;;;;;;;;;;;;;;;22.87;50.77;97045.13;4232559;28;5733;-73
2023/05/27 10:45:46;;;;;;;;;;;;;;;22.89;50.55;97045.72;4228135;27;5787;-72
2023/05/27 10:47:50;;;;;;;;;;;;;;;22.90;50.25;97050.03;4227191;28;5116;-70
2023/05/27 10:49:53;;;;;;;;;;;;;;;22.90;50.86;97041.94;4222595;28;5663;-71
2023/05/27 10:51:57;;;;;;;;;;;;;;;22.90;50.86;97036.53;4217215;28;5902;-71
2023/05/27 10:54:04;;;;;;;;;;;;;;;22.93;50.73;97033.31;4231484;28;5800;-71
2023/05/27 10:56:28;;;;;;;;;;;;;;;22.94;50.61;97038.44;4227478;28;6376;-71
2023/05/27 10:58:34;;;;;;;;;;;;;;;22.94;50.46;97027.66;4220457;28;5968;-73
2023/05/27 11:00:38;;;;;;;;;;;;;;;22.95;50.50;97031.97;4226410;28;5820;-71
2023/05/27 11:02:41;;;;;;;;;;;;;;;22.96;50.46;97030.06;4225930;28;5687;-72
2023/05/27 11:04:45;;;;;;;;;;;;;;;22.95;50.44;97031.16;4225846;27;5065;-74
2023/05/27 11:06:58;;;;;;;;;;;;;;;22.94;50.45;97026.84;4230801;28;5646;-73
2023/05/27 11:09:05;;;;;;;;;;;;;;;22.98;50.22;97021.72;4220502;28;5964;-70
2023/05/27 11:11:09;;;;;;;;;;;;;;;22.98;50.47;97016.31;4230911;28;5650;-70
2023/05/27 11:13:13;;;;;;;;;;;;;;;22.99;50.73;97013.38;4225012;28;5638;-70
2023/05/27 11:15:19;;;;;;;;;;;;;;;23.00;50.79;97023.09;4223305;28;5787;-70
2023/05/27 11:17:23;;;;;;;;;;;;;;;23.01;50.70;97016.63;4218569;28;5830;-70
2023/05/27 11:19:26;;;;;;;;;;;;;;;23.02;50.63;97015.53;4232890;28;5776;-70
2023/05/27 11:21:29;;;;;;;;;;;;;;;23.02;50.50;97015.53;4224237;28;5103;-70
2023/05/27 11:23:37;;;;;;;;;;;;;;;23.03;50.13;97010.94;4221276;28;5660;-70
2023/05/27 11:25:44;;;;;;;;;;;;;;;23.06;50.27;97002.31;4229355;28;5658;-70
2023/05/27 11:27:47;;;;;;;;;;;;;;;23.08;50.32;97008.25;4231754;28;5729;-70
2023/05/27 11:29:53;;;;;;;;;;;;;;;23.09;50.31;97007.16;4233206;28;5713;-70
2023/05/27 11:31:56;;;;;;;;;;;;;;;23.10;50.16;97008.78;4226229;27;6476;-70
2023/05/27 11:33:59;;;;;;;;;;;;;;;23.11;50.08;97000.47;4224352;28;5775;-70
2023/05/27 11:36:07;;;;;;;;;;;;;;;23.13;50.02;97003.69;4223676;28;5721;-70
2023/05/27 11:38:17;;;;;;;;;;;;;;;23.16;50.52;97003.16;4232886;28;5813;-71
2023/05/27 11:40:21;;;;;;;;;;;;;;;23.19;49.89;96996.41;4224368;28;5077;-70
2023/05/27 11:42:25;;;;;;;;;;;;;;;23.21;49.92;96996.94;4224358;28;5836;-70
2023/05/27 11:44:28;;;;;;;;;;;;;;;23.22;50.21;96995.88;4229776;28;6479;-70
2023/05/27 11:46:39;;;;;;;;;;;;;;;23.26;49.88;96996.97;4227394;28;5749;-70
2023/05/27 11:48:43;;;;;;;;;;;;;;;23.30;49.90;96997.22;4224463;28;5897;-70
2023/05/27 11:50:47;;;;;;;;;;;;;;;;;;4232905;27;5649;-70
2023/05/27 11:52:54;;;;;;;;;;;;;;;23.34;49.94;96984.81;4232702;28;6535;-70
2023/05/27 11:54:57;;;;;;;;;;;;;;;23.36;49.68;96988.06;4217215;28;5747;-70
2023/05/27 11:57:02;;;;;;;;;;;;;;;23.36;50.03;96982.66;4231736;28;6476;-70
2023/05/27 11:59:05;;;;;;;;;;;;;;;23.39;49.60;96976.72;4223659;28;5654;-70
2023/05/27 12:01:08;;;;;;;;;;;;;;;23.40;50.19;96979.16;4222996;28;5653;-70
2023/05/27 12:03:12;;;;;;;;;;;;;;;23.40;49.50;96972.94;4223664;28;5675;-70
2023/05/27 12:05:16;;;;;;;;;;;;;;;23.39;49.96;96974.03;4216994;28;5678;-70
2023/05/27 12:07:39;;;;;;;;;;;;;;;23.38;50.03;96964.31;4228002;28;6452;-70
2023/05/27 12:09:42;;;;;;;;;;;;;;;23.39;49.86;96966.75;4223594;28;6012;-72
2023/05/27 12:11:45;;;;;;;;;;;;;;;23.41;49.58;96966.47;4232707;27;5650;-71
2023/05/27 12:13:48;;;;;;;;;;;;;;;23.41;49.59;96964.56;4225670;28;5865;-72
2023/05/27 12:15:51;;;;;;;;;;;;;;;23.42;49.42;96965.38;4228782;28;5787;-71
2023/05/27 12:17:54;;;;;;;;;;;;;;;23.42;49.57;96960.00;4233591;28;5740;-71
2023/05/27 12:19:59;;;;;;;;;;;;;;;23.45;49.39;96962.16;4224820;28;5664;-71
2023/05/27 12:22:02;;;;;;;;;;;;;;;23.48;49.28;96954.31;4227110;28;5658;-71
2023/05/27 12:24:05;;;;;;;;;;;;;;;23.51;49.55;96952.97;4227492;28;5761;-70
2023/05/27 12:26:08;;;;;;;;;;;;;;;23.52;49.31;96951.88;4226908;28;5717;-69
2023/05/27 12:28:11;;;;;;;;;;;;;;;23.54;49.68;96945.13;4227184;28;5770;-70
2023/05/27 12:30:14;;;;;;;;;;;;;;;23.54;49.42;96947.81;4235371;27;5649;-70
2023/05/27 12:32:17;;;;;;;;;;;;;;;23.57;49.48;96946.50;4235603;28;5733;-70
2023/05/27 12:34:20;;;;;;;;;;;;;;;23.62;49.03;96945.69;4234352;28;5862;-71
2023/05/27 12:36:24;;;;;;;;;;;;;;;23.63;49.41;96942.72;4228909;28;5650;-70
2023/05/27 12:38:27;;;;;;;;;;;;;;;23.61;49.12;96936.78;4234775;28;5758;-70
2023/05/27 12:40:30;;;;;;;;;;;;;;;23.62;49.04;96943.81;4223510;28;5751;-71
2023/05/27 12:42:33;;;;;;;;;;;;;;;23.63;49.40;96944.63;4230355;28;5638;-71
2023/05/27 12:44:36;;;;;;;;;;;;;;;23.64;49.02;96938.94;4231240;28;5826;-71
2023/05/27 12:46:39;;;;;;;;;;;;;;;23.67;49.06;96933.03;4218571;27;5655;-71
2023/05/27 12:48:42;;;;;;;;;;;;;;;23.67;48.94;96927.63;4226840;28;5738;-71
2023/05/27 12:50:45;;;;;;;;;;;;;;;23.68;49.04;96929.25;4232445;28;5677;-70
2023/05/27 12:52:51;;;;;;;;;;;;;;;23.70;48.93;96932.47;4234821;28;5741;-70
2023/05/27 12:54:54;;;;;;;;;;;;;;;23.74;49.43;96928.13;4235215;28;5661;-70
2023/05/27 12:56:57;;;;;;;;;;;;;;;23.77;49.02;96926.75;4219582;28;5771;-70
2023/05/27 12:59:00;;;;;;;;;;;;;;;23.79;49.37;96930.81;4226898;28;5704;-70
2023/05/27 13:01:02;;;;;;;;;;;;;;;23.79;48.82;96919.22;4234138;28;7672;-70
2023/05/27 13:03:06;;;;;;;;;;;;;;;23.82;49.21;96924.06;4225398;28;5774;-70
2023/05/27 13:05:10;;;;;;;;;;;;;;;23.83;48.80;96914.06;4219035;28;6647;-70
2023/05/27 13:07:13;;;;;;;;;;;;;;;23.83;48.94;96916.78;4235239;28;5789;-70
2023/05/27 13:09:20;;;;;;;;;;;;;;;23.84;48.81;96915.69;4234772;27;5800;-69
2023/05/27 13:11:23;;;;;;;;;;;;;;;23.87;49.00;96917.84;4235125;28;5701;-70
2023/05/27 13:13:25;;;;;;;;;;;;;;;23.90;48.84;96909.19;4226052;27;5758;-70
2023/05/27 13:15:28;;;;;;;;;;;;;;;23.93;48.63;96897.84;4226455;28;5782;-70
2023/05/27 13:17:31;;;;;;;;;;;;;;;23.95;48.49;96901.88;4225908;28;5651;-70
2023/05/27 13:19:34;;;;;;;;;;;;;;;23.95;48.96;96901.88;4234153;28;5824;-70
2023/05/27 13:21:37;;;;;;;;;;;;;;;23.96;48.62;96902.69;4230433;28;5729;-70
2023/05/27 13:23:40;;;;;;;;;;;;;;;23.96;48.81;96895.41;4230777;28;5729;-70
2023/05/27 13:25:46;;;;;;;;;;;;;;;23.99;48.83;96891.31;4226366;28;6701;-70
2023/05/27 13:27:49;;;;;;;;;;;;;;;24.00;48.72;96887.53;4220140;28;5671;-70
2023/05/27 13:29:53;;;;;;;;;;;;;;;24.02;48.55;96880.81;4224108;28;5733;-70
2023/05/27 13:31:56;;;;;;;;;;;;;;;24.07;48.49;96869.97;4226280;28;5750;-70
2023/05/27 13:33:59;;;;;;;;;;;;;;;24.11;48.54;96870.22;4227264;28;5762;-70
2023/05/27 13:36:02;;;;;;;;;;;;;;;24.11;48.62;96879.13;4225170;28;5139;-69
2023/05/27 13:38:06;;;;;;;;;;;;;;;24.13;48.18;96876.16;4219305;28;5651;-71
2023/05/27 13:40:10;;;;;;;;;;;;;;;24.17;48.13;96869.09;4218376;27;5848;-68
2023/05/27 13:42:14;;;;;;;;;;;;;;;24.22;48.39;96868.25;4229466;28;5841;-67
2023/05/27 13:44:17;;;;;;;;;;;;;;;24.24;48.23;96861.53;4228387;28;5787;-73
2023/05/27 13:46:20;;;;;;;;;;;;;;;24.23;48.25;96859.06;4219787;27;5751;-71
2023/05/27 13:48:23;;;;;;;;;;;;;;;24.20;48.05;96849.63;4225477;28;5734;-70
2023/05/27 13:50:28;;;;;;;;;;;;;;;24.19;48.29;96848.03;4222573;28;5813;-69
2023/05/27 13:52:31;;;;;;;;;;;;;;;24.18;48.34;96846.41;4227303;28;5661;-68
2023/05/27 13:54:35;;;;;;;;;;;;;;;24.21;48.42;96845.03;4225106;27;5714;-69
2023/05/27 13:56:38;;;;;;;;;;;;;;;24.22;48.26;96844.75;4228160;28;5638;-68
2023/05/27 13:58:42;;;;;;;;;;;;;;;24.26;47.93;96839.63;4227728;28;5733;-69
2023/05/27 14:00:46;;;;;;;;;;;;;;;24.29;47.96;96839.88;4224439;28;5762;-71
2023/05/27 14:02:48;;;;;;;;;;;;;;;24.32;47.74;96836.63;4227831;28;5832;-71
2023/05/27 14:04:52;;;;;;;;;;;;;;;24.33;47.84;96832.84;4225458;27;7392;-75
2023/05/27 14:06:57;;;;;;;;;;;;;;;24.36;47.92;96839.59;4223617;27;5141;-69
2023/05/27 14:09:00;;;;;;;;;;;;;;;24.38;47.70;96840.94;4227032;27;5936;-71
2023/05/27 14:11:03;;;;;;;;;;;;;;;24.39;47.39;96830.94;4223598;28;5638;-72
2023/05/27 14:13:06;;;;;;;;;;;;;;;24.38;47.86;96832.81;4231416;28;5691;-68
2023/05/27 14:15:12;;;;;;;;;;;;;;;24.37;47.57;96831.22;4223607;28;5721;-67
2023/05/27 14:17:15;;;;;;;;;;;;;;;24.34;47.36;96834.44;4224788;28;7059;-67
2023/05/27 14:19:18;;;;;;;;;;;;;;;24.31;47.60;96828.81;4216804;28;5767;-68
2023/05/27 14:21:21;;;;;;;;;;;;;;;24.30;47.54;96833.41;4230733;28;5658;-69
2023/05/27 14:23:24;;;;;;;;;;;;;;;24.27;47.54;96823.13;4228372;28;5717;-72
2023/05/27 14:25:27;;;;;;;;;;;;;;;24.25;47.78;96825.31;4222477;28;5821;-72
2023/05/27 14:27:32;;;;;;;;;;;;;;;24.27;47.46;96825.84;4225265;28;5799;-75
2023/05/27 14:29:35;;;;;;;;;;;;;;;24.29;47.42;96837.16;4220761;28;5662;-73
2023/05/27 14:31:40;;;;;;;;;;;;;;;24.29;47.68;96836.34;4223522;28;6513;-78
2023/05/27 14:33:42;;;;;;;;;;;;;;;24.29;47.33;96836.34;4229340;28;5126;-71
2023/05/27 14:35:46;;;;;;;;;;;;;;;24.32;47.83;96833.94;4231820;28;5787;-73
2023/05/27 14:37:49;;;;;;;;;;;;;;;24.32;47.73;96831.22;4229520;27;5662;-74
2023/05/27 14:39:52;;;;;;;;;;;;;;;24.33;47.93;96837.44;4230846;28;5701;-74
2023/05/27 14:41:56;;;;;;;;;;;;;;;24.30;47.62;96828.00;4227530;28;6368;-71
2023/05/27 14:43:59;;;;;;;;;;;;;;;24.29;47.40;96831.75;4230163;28;6365;-71
2023/05/27 14:46:02;;;;;;;;;;;;;;;24.27;47.98;96827.72;4228766;28;5784;-70
2023/05/27 14:48:06;;;;;;;;;;;;;;;24.27;48.07;96828.53;4224499;28;5806;-74
2023/05/27 14:50:10;;;;;;;;;;;;;;;24.30;47.96;96832.56;4225719;28;5741;-73
2023/05/27 14:52:13;;;;;;;;;;;;;;;24.32;47.87;96830.41;4232478;28;5733;-70
2023/05/27 14:54:16;;;;;;;;;;;;;;;24.33;47.57;96832.84;4222777;28;5679;-72
2023/05/27 14:56:19;;;;;;;;;;;;;;;24.34;47.79;96829.03;4223462;28;5729;-74
2023/05/27 14:58:22;;;;;;;;;;;;;;;24.35;47.78;96827.97;4230895;27;5744;-74
2023/05/27 15:00:25;;;;;;;;;;;;;;;24.35;47.77;96825.28;4231527;27;5825;-72
2023/05/27 15:02:29;;;;;;;;;;;;;;;24.37;47.55;96833.09;4228478;28;5743;-73
2023/05/27 15:04:33;;;;;;;;;;;;;;;24.37;47.70;96827.69;4227517;28;5750;-75
2023/05/27 15:06:36;;;;;;;;;;;;;;;24.38;48.01;96829.31;4221742;28;6138;-67
2023/05/27 15:08:40;;;;;;;;;;;;;;;24.37;47.82;96831.22;4232283;28;5242;-76
2023/05/27 15:10:43;;;;;;;;;;;;;;;24.36;47.81;96831.50;4225548;28;5675;-68
2023/05/27 15:12:47;;;;;;;;;;;;;;;24.35;47.90;96836.09;4228296;28;5653;-73
2023/05/27 15:14:50;;;;;;;;;;;;;;;24.36;47.87;96845.81;4229578;28;5714;-66
2023/05/27 15:16:53;;;;;;;;;;;;;;;24.35;47.66;96840.66;4230729;27;5642;-69
2023/05/27 15:18:58;;;;;;;;;;;;;;;24.36;47.75;96840.41;4223591;28;5840;-72
2023/05/27 15:21:02;;;;;;;;;;;;;;;24.38;47.68;96840.94;4232110;28;5737;-72
2023/05/27 15:23:05;;;;;;;;;;;;;;;24.39;47.81;96837.13;4224760;28;7704;-72
2023/05/27 15:25:08;;;;;;;;;;;;;;;24.39;47.95;96842.53;4225140;28;5749;-71
2023/05/27 15:27:12;;;;;;;;;;;;;;;24.38;47.86;96840.94;4219972;28;5869;-75
2023/05/27 15:29:14;;;;;;;;;;;;;;;24.38;47.93;96846.34;4228686;28;5665;-72
2023/05/27 15:31:19;;;;;;;;;;;;;;;24.37;47.63;96839.31;4226202;28;5733;-69
2023/05/27 15:33:22;;;;;;;;;;;;;;;24.35;47.68;96835.25;4220389;28;5797;-71
2023/05/27 15:35:25;;;;;;;;;;;;;;;24.35;48.07;96836.09;4224355;28;5792;-68
2023/05/27 15:37:30;;;;;;;;;;;;;;;24.34;47.52;96833.66;4233166;27;5658;-71
2023/05/27 15:39:33;;;;;;;;;;;;;;;24.35;47.90;96833.38;4232731;28;5638;-72
2023/05/27 15:41:36;;;;;;;;;;;;;;;24.34;47.52;96822.84;4233496;28;5758;-70
2023/05/27 15:43:39;;;;;;;;;;;;;;;24.34;47.66;96826.34;4229709;28;5663;-68
2023/05/27 15:45:43;;;;;;;;;;;;;;;24.36;47.99;96831.50;4222346;28;5871;-69
2023/05/27 15:48:05;;;;;;;;;;;;;;;24.35;47.43;96829.84;4231396;28;6464;-69
2023/05/27 15:50:08;;;;;;;;;;;;;;;24.35;47.84;96838.78;4234993;28;5654;-66
2023/05/27 15:52:12;;;;;;;;;;;;;;;24.36;47.62;96835.00;4235751;28;5724;-67
2023/05/27 15:54:17;;;;;;;;;;;;;;;24.35;47.71;96833.38;4228095;28;5653;-70
2023/05/27 15:56:20;;;;;;;;;;;;;;;24.36;47.41;96831.50;4231286;28;5777;-67
2023/05/27 15:58:23;;;;;;;;;;;;;;;24.37;47.50;96839.31;4221425;28;5679;-71
2023/05/27 16:00:26;;;;;;;;;;;;;;;24.36;47.34;96832.31;4233495;28;5785;-70
2023/05/27 16:02:29;;;;;;;;;;;;;;;24.36;47.28;96843.09;4235898;27;5896;-70
2023/05/27 16:04:35;;;;;;;;;;;;;;;24.34;47.38;96836.34;4230662;28;5836;-70
2023/05/27 16:06:39;;;;;;;;;;;;;;;24.33;47.38;96838.25;4219648;28;5688;-71
2023/05/27 16:08:42;;;;;;;;;;;;;;;24.32;47.38;96841.22;4226444;28;5758;-72
2023/05/27 16:10:47;;;;;;;;;;;;;;;24.30;47.61;96828.00;4224676;28;5717;-72
2023/05/27 16:12:50;;;;;;;;;;;;;;;24.29;47.11;96826.38;4230457;28;5641;-78
2023/05/27 16:14:53;;;;;;;;;;;;;;;24.28;46.97;96829.34;4234350;28;5769;-79
2023/05/27 16:16:56;;;;;;;;;;;;;;;24.26;47.10;96831.53;4229454;28;5750;-72
2023/05/27 16:18:59;;;;;;;;;;;;;;;24.25;47.32;96819.09;4223544;28;5057;-70
2023/05/27 16:21:02;;;;;;;;;;;;;;;24.24;47.25;96818.31;4228182;27;5660;-70
2023/05/27 16:23:06;;;;;;;;;;;;;;;24.22;47.33;96820.44;4230065;27;5622;-69
2023/05/27 16:25:09;;;;;;;;;;;;;;;24.22;47.13;96822.34;4233201;28;5729;-68
2023/05/27 16:27:14;;;;;;;;;;;;;;;24.21;47.38;96818.84;4233548;28;6461;-71
2023/05/27 16:29:17;;;;;;;;;;;;;;;24.20;47.43;96822.63;4227843;28;5650;-73
2023/05/27 16:31:21;;;;;;;;;;;;;;;24.18;47.11;96824.81;4233079;28;5650;-77
2023/05/27 16:33:25;;;;;;;;;;;;;;;24.18;46.98;96841.00;4233909;28;5112;-74
2023/05/27 16:35:28;;;;;;;;;;;;;;;24.18;47.01;96835.59;4227805;27;5641;-81
2023/05/27 16:37:31;;;;;;;;;;;;;;;24.19;47.33;96839.94;4230733;28;5753;-71
2023/05/27 16:39:34;;;;;;;;;;;;;;;24.19;47.06;96837.22;4227742;27;6339;-74
2023/05/27 16:41:37;;;;;;;;;;;;;;;24.18;46.98;96830.22;4223682;28;5637;-72
2023/05/27 16:43:42;;;;;;;;;;;;;;;24.16;47.07;96835.09;4226566;28;5871;-76
2023/05/27 16:45:45;;;;;;;;;;;;;;;24.15;47.38;96841.56;4227330;28;6631;-74
2023/05/27 16:47:48;;;;;;;;;;;;;;;24.17;47.41;96846.69;4226684;28;7037;-73
2023/05/27 16:49:51;;;;;;;;;;;;;;;24.16;47.49;96842.38;4228210;28;5906;-72
2023/05/27 16:51:54;;;;;;;;;;;;;;;24.15;47.19;96836.19;4228714;28;5677;-72
2023/05/27 16:53:57;;;;;;;;;;;;;;;24.16;47.68;96843.19;4231586;28;5773;-72
2023/05/27 16:56:00;;;;;;;;;;;;;;;24.16;47.71;96845.88;4231824;28;7107;-71
2023/05/27 16:58:03;;;;;;;;;;;;;;;24.13;47.48;96841.06;4226148;27;7268;-72
2023/05/27 17:00:09;;;;;;;;;;;;;;;24.12;47.44;96836.72;4225849;28;5745;-72
2023/05/27 17:02:13;;;;;;;;;;;;;;;24.08;47.65;96830.25;4225941;28;6472;-72
2023/05/27 17:04:16;;;;;;;;;;;;;;;24.08;47.76;96838.38;4233385;28;5638;-72
2023/05/27 17:06:19;;;;;;;;;;;;;;;24.07;48.08;96844.84;4227944;28;5675;-71
2023/05/27 17:08:21;;;;;;;;;;;;;;;24.04;47.84;96848.13;4223226;28;5658;-72
2023/05/27 17:10:25;;;;;;;;;;;;;;;24.04;48.31;96845.41;4229143;28;5721;-73
2023/05/27 17:12:28;;;;;;;;;;;;;;;24.02;47.91;96844.88;4230531;28;5822;-72
2023/05/27 17:14:33;;;;;;;;;;;;;;;24.00;47.71;96847.03;4228643;28;5638;-72
2023/05/27 17:16:40;;;;;;;;;;;;;;;24.00;48.26;96841.63;4234971;27;5820;-72
2023/05/27 17:18:43;;;;;;;;;;;;;;;24.01;48.00;96845.94;4227459;28;6331;-72
2023/05/27 17:20:46;;;;;;;;;;;;;;;23.99;48.42;96842.72;4231246;28;5732;-72
2023/05/27 17:22:49;;;;;;;;;;;;;;;23.99;48.53;96850.81;4221905;28;5848;-72
2023/05/27 17:24:52;;;;;;;;;;;;;;;23.98;48.12;96852.72;4228431;28;5649;-73
2023/05/27 17:26:56;;;;;;;;;;;;;;;23.98;48.03;96854.59;4232791;27;5693;-72
2023/05/27 17:28:58;;;;;;;;;;;;;;;23.95;48.11;96841.66;4227308;28;5808;-72
2023/05/27 17:31:01;;;;;;;;;;;;;;;23.95;48.48;96841.66;4228792;28;5112;-72
2023/05/27 17:33:06;;;;;;;;;;;;;;;23.94;48.44;96843.56;4228865;27;5666;-72
2023/05/27 17:35:10;;;;;;;;;;;;;;;23.93;48.50;96844.66;4228304;28;5645;-72
2023/05/27 17:37:13;;;;;;;;;;;;;;;23.93;48.61;96833.84;4228714;28;5780;-72
2023/05/27 17:39:16;;;;;;;;;;;;;;;23.94;48.57;96834.66;4230795;28;5926;-72
2023/05/27 17:41:18;;;;;;;;;;;;;;;23.93;48.24;96844.66;4231172;28;5813;-72
2023/05/27 17:43:21;;;;;;;;;;;;;;;23.92;48.46;96832.25;4228862;28;5836;-72
2023/05/27 17:45:25;;;;;;;;;;;;;;;23.92;48.37;96836.84;4227784;28;6534;-70
2023/05/27 17:47:28;;;;;;;;;;;;;;;23.94;48.42;96842.75;4227534;28;5710;-70
2023/05/27 17:49:33;;;;;;;;;;;;;;;23.92;48.31;96844.94;4228831;27;5646;-69
2023/05/27 17:51:36;;;;;;;;;;;;;;;23.95;48.44;96847.06;4223870;28;5645;-70
2023/05/27 17:53:39;;;;;;;;;;;;;;;23.92;48.63;96843.03;4225770;28;5635;-70
2023/05/27 17:55:42;;;;;;;;;;;;;;;23.93;48.83;96847.34;4227796;27;5730;-70
2023/05/27 17:57:46;;;;;;;;;;;;;;;23.93;48.28;96846.53;4223945;28;5650;-70
2023/05/27 17:59:49;;;;;;;;;;;;;;;23.93;48.49;96841.16;4233495;28;5646;-77
2023/05/27 18:01:53;;;;;;;;;;;;;;;23.91;48.86;96846.84;4222490;28;5692;-70
2023/05/27 18:03:56;;;;;;;;;;;;;;;23.90;48.97;96845.22;4227542;28;5667;-72
2023/05/27 18:06:00;;;;;;;;;;;;;;;23.91;48.58;96849.53;4232644;28;6397;-78
2023/05/27 18:08:03;;;;;;;;;;;;;;;23.90;48.89;96849.78;4222588;27;5754;-76
2023/05/27 18:10:08;;;;;;;;;;;;;;;23.89;48.79;96850.88;4225436;28;5650;-73
2023/05/27 18:12:11;;;;;;;;;;;;;;;23.86;49.08;96849.53;4218842;28;5659;-73
2023/05/27 18:14:14;;;;;;;;;;;;;;;23.89;49.23;96848.97;4232243;28;5649;-71
2023/05/27 18:16:17;;;;;;;;;;;;;;;23.88;48.95;96850.06;4229832;28;5758;-77
2023/05/27 18:18:21;;;;;;;;;;;;;;;23.89;49.44;96853.56;4234336;28;5646;-72
2023/05/27 18:20:24;;;;;;;;;;;;;;;23.90;48.86;96844.38;4233908;28;5754;-70
2023/05/27 18:22:28;;;;;;;;;;;;;;;23.90;49.00;96844.38;4228989;28;5662;-74
2023/05/27 18:24:31;;;;;;;;;;;;;;;23.91;48.84;96846.03;4233971;28;5814;-75
2023/05/27 18:26:35;;;;;;;;;;;;;;;23.92;49.18;96847.63;4232347;28;7683;-77
2023/05/27 18:28:38;;;;;;;;;;;;;;;23.93;49.14;96844.66;4233741;28;5635;-75
2023/05/27 18:30:41;;;;;;;;;;;;;;;23.94;49.11;96845.47;4224384;28;5634;-69
2023/05/27 18:32:45;;;;;;;;;;;;;;;23.93;49.22;96833.84;4224671;28;5651;-83